sensor_id;sensor_type;location;lat;lon;timestamp;P1;P4;P2;P0;N10;N4;N25;N1;N05;TS
70299;SPS30;57704;51.112;5.878;2023-02-01T00:04:13;3.41;3.33;3.18;2.83;22.63;22.62;22.58;22.36;19.56;0.51
70299;SPS30;57704;51.112;5.878;2023-02-01T00:06:41;3.35;3.25;3.06;2.68;21.38;21.37;21.32;21.06;18.32;0.52
70299;SPS30;57704;51.112;5.878;2023-02-01T00:09:08;3.21;3.14;3.00;2.68;21.39;21.38;21.34;21.14;18.51;0.51
70299;SPS30;57704;51.112;5.878;2023-02-01T00:11:34;3.27;3.19;3.03;2.69;21.52;21.51;21.47;21.25;18.57;0.53
70299;SPS30;57704;51.112;5.878;2023-02-01T00:14:08;3.45;3.36;3.19;2.81;22.46;22.45;22.40;22.16;19.33;0.55
70299;SPS30;57704;51.112;5.878;2023-02-01T00:16:37;3.46;3.35;3.12;2.68;21.45;21.44;21.39;21.08;18.25;0.58
70299;SPS30;57704;51.112;5.878;2023-02-01T00:19:05;3.60;3.43;3.11;2.56;20.49;20.47;20.40;19.97;17.06;0.60
70299;SPS30;57704;51.112;5.878;2023-02-01T00:24:26;3.42;3.28;3.02;2.55;20.42;20.40;20.34;19.99;17.22;0.57
70299;SPS30;57704;51.112;5.878;2023-02-01T00:29:47;3.17;3.03;2.76;2.30;18.38;18.37;18.30;17.95;15.38;0.59
70299;SPS30;57704;51.112;5.878;2023-02-01T00:32:14;3.25;3.10;2.81;2.33;18.60;18.58;18.52;18.13;15.51;0.59
70299;SPS30;57704;51.112;5.878;2023-02-01T00:34:44;3.42;3.29;3.05;2.60;20.81;20.80;20.74;20.41;17.63;0.55
70299;SPS30;57704;51.112;5.878;2023-02-01T00:37:16;3.38;3.25;3.01;2.57;20.55;20.53;20.48;20.15;17.40;0.55
70299;SPS30;57704;51.112;5.878;2023-02-01T00:42:53;3.42;3.28;3.01;2.53;20.20;20.19;20.13;19.76;16.98;0.58
70299;SPS30;57704;51.112;5.878;2023-02-01T00:45:21;3.46;3.31;3.03;2.53;20.25;20.24;20.17;19.80;16.99;0.58
70299;SPS30;57704;51.112;5.878;2023-02-01T00:47:51;3.26;3.14;2.90;2.48;19.78;19.77;19.71;19.40;16.75;0.57
70299;SPS30;57704;51.112;5.878;2023-02-01T00:50:17;3.33;3.22;3.01;2.60;20.76;20.75;20.70;20.41;17.69;0.56
70299;SPS30;57704;51.112;5.878;2023-02-01T00:52:44;3.43;3.31;3.07;2.63;21.05;21.03;20.98;20.66;17.87;0.56
70299;SPS30;57704;51.112;5.878;2023-02-01T00:55:11;3.68;3.54;3.28;2.80;22.39;22.38;22.32;21.97;18.97;0.57
70299;SPS30;57704;51.112;5.878;2023-02-01T00:57:42;3.54;3.40;3.13;2.66;21.23;21.21;21.15;20.79;17.92;0.58
70299;SPS30;57704;51.112;5.878;2023-02-01T01:00:28;3.29;3.19;3.01;2.63;21.00;20.98;20.94;20.68;17.99;0.55
70299;SPS30;57704;51.112;5.878;2023-02-01T01:05:47;3.59;3.46;3.22;2.77;22.15;22.14;22.08;21.76;18.84;0.56
70299;SPS30;57704;51.112;5.878;2023-02-01T01:08:15;3.90;3.74;3.42;2.87;22.95;22.93;22.86;22.43;19.27;0.56
70299;SPS30;57704;51.112;5.878;2023-02-01T01:10:42;3.50;3.37;3.11;2.65;21.19;21.18;21.12;20.78;17.93;0.56
70299;SPS30;57704;51.112;5.878;2023-02-01T01:13:12;3.90;3.77;3.50;3.01;24.06;24.04;23.98;23.63;20.45;0.55
70299;SPS30;57704;51.112;5.878;2023-02-01T01:18:16;3.86;3.74;3.51;3.06;24.44;24.43;24.37;24.05;20.90;0.55
70299;SPS30;57704;51.112;5.878;2023-02-01T01:23:33;3.38;3.30;3.15;2.81;22.41;22.40;22.36;22.15;19.37;0.55
70299;SPS30;57704;51.112;5.878;2023-02-01T01:26:14;3.35;3.27;3.12;2.78;22.19;22.18;22.15;21.93;19.18;0.55
70299;SPS30;57704;51.112;5.878;2023-02-01T01:28:43;3.74;3.65;3.47;3.07;24.54;24.53;24.48;24.23;21.16;0.54
70299;SPS30;57704;51.112;5.878;2023-02-01T01:31:11;3.35;3.27;3.11;2.76;22.03;22.02;21.98;21.76;19.00;0.53
70299;SPS30;57704;51.112;5.878;2023-02-01T01:39:35;3.88;3.79;3.62;3.22;25.73;25.72;25.67;25.42;22.23;0.52
70299;SPS30;57704;51.112;5.878;2023-02-01T01:42:02;3.37;3.29;3.14;2.80;22.36;22.35;22.31;22.10;19.33;0.52
70299;SPS30;57704;51.112;5.878;2023-02-01T01:47:33;3.94;3.83;3.61;3.17;25.35;25.34;25.29;24.99;21.76;0.54
70299;SPS30;57704;51.112;5.878;2023-02-01T01:50:05;3.22;3.14;2.99;2.65;21.21;21.20;21.16;20.95;18.31;0.53
70299;SPS30;57704;51.112;5.878;2023-02-01T01:52:38;3.50;3.43;3.28;2.94;23.46;23.45;23.41;23.20;20.32;0.54
70299;SPS30;57704;51.112;5.878;2023-02-01T01:55:09;3.29;3.22;3.07;2.73;21.84;21.83;21.79;21.58;18.88;0.53
70299;SPS30;57704;51.112;5.878;2023-02-01T01:57:48;3.26;3.17;3.00;2.64;21.13;21.12;21.08;20.84;18.17;0.54
70299;SPS30;57704;51.112;5.878;2023-02-01T02:03:18;3.61;3.51;3.32;2.92;23.33;23.32;23.27;23.00;20.04;0.53
70299;SPS30;57704;51.112;5.878;2023-02-01T02:05:53;3.51;3.41;3.22;2.82;22.56;22.55;22.50;22.24;19.36;0.54
70299;SPS30;57704;51.112;5.878;2023-02-01T02:08:25;3.43;3.33;3.14;2.75;21.95;21.94;21.90;21.63;18.83;0.54
70299;SPS30;57704;51.112;5.878;2023-02-01T02:10:54;3.35;3.24;3.02;2.60;20.76;20.75;20.70;20.40;17.66;0.56
70299;SPS30;57704;51.112;5.878;2023-02-01T02:13:40;3.62;3.50;3.26;2.82;22.54;22.53;22.48;22.16;19.21;0.57
70299;SPS30;57704;51.112;5.878;2023-02-01T02:16:15;3.97;3.84;3.57;3.06;24.49;24.48;24.41;24.05;20.81;0.55
70299;SPS30;57704;51.112;5.878;2023-02-01T02:18:58;3.76;3.61;3.32;2.82;22.51;22.49;22.42;22.04;18.99;0.56
70299;SPS30;57704;51.112;5.878;2023-02-01T02:21:54;3.76;3.62;3.35;2.86;22.85;22.84;22.77;22.41;19.36;0.56
70299;SPS30;57704;51.112;5.878;2023-02-01T02:33:17;3.72;3.63;3.46;3.06;24.48;24.47;24.42;24.17;21.11;0.54
70299;SPS30;57704;51.112;5.878;2023-02-01T02:38:33;3.62;3.51;3.30;2.88;23.03;23.01;22.96;22.68;19.72;0.55
70299;SPS30;57704;51.112;5.878;2023-02-01T02:44:21;3.64;3.53;3.32;2.90;23.15;23.14;23.08;22.80;19.82;0.53
70299;SPS30;57704;51.112;5.878;2023-02-01T02:50:47;3.47;3.36;3.13;2.71;21.65;21.64;21.58;21.28;18.45;0.53
70299;SPS30;57704;51.112;5.878;2023-02-01T02:56:46;3.71;3.58;3.32;2.84;22.69;22.67;22.61;22.26;19.24;0.57
70299;SPS30;57704;51.112;5.878;2023-02-01T02:59:34;3.62;3.51;3.30;2.89;23.08;23.06;23.01;22.73;19.77;0.54
70299;SPS30;57704;51.112;5.878;2023-02-01T03:02:22;3.61;3.50;3.28;2.86;22.87;22.86;22.81;22.52;19.57;0.56
70299;SPS30;57704;51.112;5.878;2023-02-01T03:05:12;3.71;3.57;3.30;2.81;22.47;22.46;22.39;22.03;19.01;0.58
70299;SPS30;57704;51.112;5.878;2023-02-01T03:10:50;3.75;3.60;3.29;2.77;22.11;22.09;22.02;21.62;18.57;0.59
70299;SPS30;57704;51.112;5.878;2023-02-01T03:19:01;3.77;3.59;3.23;2.66;21.24;21.22;21.14;20.68;17.64;0.60
70299;SPS30;57704;51.112;5.878;2023-02-01T03:21:48;3.86;3.68;3.31;2.71;21.70;21.68;21.59;21.12;18.00;0.61
70299;SPS30;57704;51.112;5.878;2023-02-01T03:30:11;4.09;3.89;3.50;2.87;22.91;22.90;22.80;22.30;19.00;0.60
70299;SPS30;57704;51.112;5.878;2023-02-01T03:33:07;3.16;3.03;2.77;2.32;18.55;18.54;18.48;18.14;15.57;0.59
70299;SPS30;57704;51.112;5.878;2023-02-01T03:39:03;3.64;3.46;3.13;2.57;20.55;20.54;20.46;20.02;17.08;0.61
70299;SPS30;57704;51.112;5.878;2023-02-01T03:42:03;3.79;3.60;3.22;2.63;21.01;20.99;20.90;20.42;17.37;0.61
70299;SPS30;57704;51.112;5.878;2023-02-01T03:47:47;3.60;3.43;3.09;2.53;20.26;20.25;20.17;19.73;16.82;0.58
70299;SPS30;57704;51.112;5.878;2023-02-01T03:50:21;3.70;3.52;3.15;2.57;20.56;20.54;20.46;19.99;17.01;0.61
70299;SPS30;57704;51.112;5.878;2023-02-01T03:58:41;3.65;3.43;2.99;2.32;18.59;18.57;18.47;17.91;15.00;0.62
70299;SPS30;57704;51.112;5.878;2023-02-01T04:01:27;4.11;3.86;3.35;2.60;20.78;20.75;20.64;20.00;16.71;0.62
70299;SPS30;57704;51.112;5.878;2023-02-01T04:03:55;3.81;3.55;3.06;2.32;18.59;18.57;18.45;17.82;14.79;0.65
70299;SPS30;57704;51.112;5.878;2023-02-01T04:09:56;3.93;3.66;3.12;2.34;18.71;18.69;18.57;17.88;14.76;0.67
70299;SPS30;57704;51.112;5.878;2023-02-01T04:12:23;4.35;4.03;3.41;2.52;20.16;20.13;19.99;19.21;15.76;0.68
70299;SPS30;57704;51.112;5.878;2023-02-01T04:14:49;3.79;3.51;2.96;2.18;17.48;17.45;17.33;16.64;13.64;0.67
70299;SPS30;57704;51.112;5.878;2023-02-01T04:17:16;3.97;3.67;3.08;2.24;17.90;17.87;17.74;16.99;13.86;0.70
70299;SPS30;57704;51.112;5.878;2023-02-01T04:19:44;4.80;4.44;3.72;2.70;21.63;21.60;21.44;20.54;16.74;0.70
70299;SPS30;57704;51.112;5.878;2023-02-01T04:22:10;4.71;4.33;3.59;2.56;20.48;20.45;20.28;19.35;15.64;0.71
70299;SPS30;57704;51.112;5.878;2023-02-01T04:24:38;4.37;4.01;3.30;2.31;18.51;18.48;18.32;17.43;13.99;0.74
70299;SPS30;57704;51.112;5.878;2023-02-01T04:27:16;4.09;3.75;3.08;2.15;17.25;17.22;17.07;16.23;13.02;0.73
70299;SPS30;57704;51.112;5.878;2023-02-01T04:29:43;4.04;3.70;3.03;2.11;16.90;16.88;16.73;15.89;12.72;0.73
70299;SPS30;57704;51.112;5.878;2023-02-01T04:32:14;4.36;3.98;3.24;2.22;17.75;17.72;17.55;16.62;13.20;0.75
70299;SPS30;57704;51.112;5.878;2023-02-01T04:34:42;4.13;3.77;3.07;2.11;16.90;16.87;16.71;15.84;12.60;0.73
70299;SPS30;57704;51.112;5.878;2023-02-01T04:37:13;4.59;4.20;3.44;2.39;19.19;19.15;18.98;18.03;14.43;0.73
70299;SPS30;57704;51.112;5.878;2023-02-01T04:39:39;4.29;3.92;3.20;2.20;17.66;17.62;17.46;16.56;13.19;0.74
70299;SPS30;57704;51.112;5.878;2023-02-01T04:42:06;5.40;4.93;4.01;2.73;21.91;21.87;21.67;20.51;16.28;0.75
70299;SPS30;57704;51.112;5.878;2023-02-01T04:44:34;5.68;5.17;4.16;2.79;22.39;22.35;22.12;20.86;16.42;0.74
70299;SPS30;57704;51.112;5.878;2023-02-01T04:47:05;5.15;4.67;3.73;2.46;19.69;19.65;19.44;18.26;14.24;0.77
70299;SPS30;57704;51.112;5.878;2023-02-01T04:49:31;5.05;4.57;3.64;2.38;19.09;19.05;18.85;17.68;13.75;0.77
70299;SPS30;57704;51.112;5.878;2023-02-01T04:51:57;5.30;4.79;3.80;2.47;19.85;19.80;19.58;18.35;14.23;0.77
70299;SPS30;57704;51.112;5.878;2023-02-01T04:54:24;4.47;4.05;3.24;2.14;17.13;17.10;16.91;15.90;12.41;0.76
70299;SPS30;57704;51.112;5.878;2023-02-01T04:56:50;4.61;4.19;3.38;2.27;18.17;18.13;17.95;16.93;13.33;0.75
70299;SPS30;57704;51.112;5.878;2023-02-01T04:59:17;5.08;4.64;3.79;2.60;20.87;20.84;20.64;19.57;15.59;0.74
70299;SPS30;57704;51.112;5.878;2023-02-01T05:04:35;4.63;4.24;3.49;2.45;19.62;19.58;19.41;18.47;14.84;0.72
70299;SPS30;57704;51.112;5.878;2023-02-01T05:07:01;4.15;3.79;3.10;2.14;17.16;17.13;16.97;16.10;12.85;0.74
70299;SPS30;57704;51.112;5.878;2023-02-01T05:09:27;4.46;4.06;3.28;2.20;17.65;17.62;17.44;16.46;12.97;0.75
70299;SPS30;57704;51.112;5.878;2023-02-01T05:11:53;4.82;4.37;3.49;2.30;18.46;18.42;18.22;17.13;13.37;0.75
70299;SPS30;57704;51.112;5.878;2023-02-01T05:14:38;4.89;4.43;3.52;2.29;18.36;18.32;18.12;16.98;13.17;0.74
70299;SPS30;57704;51.112;5.878;2023-02-01T05:17:06;4.94;4.46;3.51;2.23;17.92;17.88;17.67;16.49;12.65;0.76
70299;SPS30;57704;51.112;5.878;2023-02-01T05:22:41;5.05;4.51;3.46;2.08;16.74;16.69;16.46;15.16;11.26;0.83
70299;SPS30;57704;51.112;5.878;2023-02-01T05:25:08;4.96;4.43;3.39;2.01;16.17;16.12;15.89;14.60;10.77;0.84
70299;SPS30;57704;51.112;5.878;2023-02-01T05:27:41;5.61;5.03;3.88;2.36;18.92;18.87;18.61;17.18;12.85;0.82
70299;SPS30;57704;51.112;5.878;2023-02-01T05:33:00;5.19;4.62;3.49;2.02;16.20;16.15;15.90;14.51;10.51;0.86
70299;SPS30;57704;51.112;5.878;2023-02-01T05:35:33;5.52;4.92;3.74;2.20;17.65;17.60;17.34;15.88;11.63;0.85
70299;SPS30;57704;51.112;5.878;2023-02-01T05:40:50;4.67;4.22;3.34;2.15;17.22;17.18;16.98;15.88;12.24;0.77
70299;SPS30;57704;51.112;5.878;2023-02-01T05:43:16;5.50;4.94;3.86;2.42;19.43;19.38;19.14;17.80;13.53;0.77
70299;SPS30;57704;51.112;5.878;2023-02-01T05:48:46;4.55;4.12;3.29;2.17;17.40;17.37;17.18;16.15;12.60;0.75
70299;SPS30;57704;51.112;5.878;2023-02-01T05:51:13;5.20;4.75;3.87;2.66;21.30;21.26;21.06;19.96;15.89;0.72
70299;SPS30;57704;51.112;5.878;2023-02-01T05:53:39;4.60;4.21;3.44;2.38;19.11;19.07;18.90;17.94;14.33;0.74
70299;SPS30;57704;51.112;5.878;2023-02-01T05:56:14;4.90;4.45;3.56;2.36;18.93;18.90;18.70;17.59;13.77;0.77
70299;SPS30;57704;51.112;5.878;2023-02-01T05:58:40;5.46;4.95;3.95;2.60;20.88;20.83;20.61;19.37;15.11;0.76
70299;SPS30;57704;51.112;5.878;2023-02-01T06:01:07;4.46;4.06;3.28;2.21;17.72;17.68;17.51;16.53;13.04;0.75
70299;SPS30;57704;51.112;5.878;2023-02-01T06:03:41;4.69;4.28;3.47;2.36;18.94;18.91;18.73;17.72;14.05;0.74
70299;SPS30;57704;51.112;5.878;2023-02-01T06:06:09;4.26;3.89;3.17;2.17;17.42;17.39;17.23;16.33;12.99;0.73
70299;SPS30;57704;51.112;5.878;2023-02-01T06:08:37;4.90;4.48;3.66;2.52;20.21;20.17;19.99;18.96;15.12;0.72
70299;SPS30;57704;51.112;5.878;2023-02-01T06:11:15;4.76;4.34;3.51;2.38;19.05;19.02;18.83;17.80;14.08;0.73
70299;SPS30;57704;51.112;5.878;2023-02-01T06:13:41;5.37;4.89;3.95;2.66;21.32;21.28;21.07;19.89;15.70;0.74
70299;SPS30;57704;51.112;5.878;2023-02-01T06:19:05;5.16;4.66;3.67;2.35;18.85;18.81;18.59;17.36;13.35;0.77
70299;SPS30;57704;51.112;5.878;2023-02-01T06:21:35;5.85;5.28;4.17;2.67;21.44;21.39;21.14;19.75;15.21;0.77
70299;SPS30;57704;51.112;5.878;2023-02-01T06:24:03;5.03;4.57;3.67;2.44;19.52;19.49;19.28;18.15;14.22;0.74
70299;SPS30;57704;51.112;5.878;2023-02-01T06:26:33;4.77;4.34;3.51;2.38;19.07;19.03;18.85;17.81;14.08;0.74
70299;SPS30;57704;51.112;5.878;2023-02-01T06:28:59;4.76;4.33;3.48;2.32;18.62;18.58;18.39;17.33;13.61;0.75
70299;SPS30;57704;51.112;5.878;2023-02-01T06:31:26;4.85;4.42;3.58;2.42;19.37;19.33;19.14;18.09;14.29;0.73
70299;SPS30;57704;51.112;5.878;2023-02-01T06:33:53;5.07;4.63;3.77;2.59;20.73;20.70;20.50;19.42;15.45;0.73
70299;SPS30;57704;51.112;5.878;2023-02-01T06:36:24;4.82;4.40;3.58;2.45;19.61;19.58;19.39;18.36;14.59;0.75
70299;SPS30;57704;51.112;5.878;2023-02-01T06:38:52;5.21;4.70;3.70;2.36;18.92;18.88;18.65;17.41;13.36;0.81
70299;SPS30;57704;51.112;5.878;2023-02-01T06:41:20;5.83;5.25;4.11;2.59;20.78;20.73;20.48;19.06;14.54;0.81
70299;SPS30;57704;51.112;5.878;2023-02-01T06:43:47;5.52;4.96;3.88;2.43;19.49;19.44;19.20;17.85;13.57;0.80
70299;SPS30;57704;51.112;5.878;2023-02-01T06:46:14;5.64;5.07;3.97;2.50;20.09;20.04;19.80;18.43;14.05;0.79
70299;SPS30;57704;51.112;5.878;2023-02-01T06:48:40;5.06;4.58;3.62;2.34;18.79;18.74;18.53;17.34;13.40;0.77
70299;SPS30;57704;51.112;5.878;2023-02-01T06:51:16;4.94;4.45;3.50;2.23;17.89;17.85;17.64;16.46;12.62;0.78
70299;SPS30;57704;51.112;5.878;2023-02-01T06:53:48;5.78;5.20;4.08;2.58;20.71;20.66;20.41;19.02;14.53;0.79
70299;SPS30;57704;51.112;5.878;2023-02-01T06:56:14;5.07;4.57;3.59;2.29;18.37;18.32;18.11;16.89;12.96;0.78
70299;SPS30;57704;51.112;5.878;2023-02-01T06:58:41;6.12;5.50;4.30;2.69;21.59;21.54;21.27;19.77;15.02;0.79
70299;SPS30;57704;51.112;5.878;2023-02-01T07:01:07;4.98;4.52;3.62;2.41;19.29;19.26;19.05;17.94;14.05;0.75
70299;SPS30;57704;51.112;5.878;2023-02-01T07:03:35;4.78;4.34;3.49;2.32;18.62;18.59;18.40;17.33;13.60;0.76
70299;SPS30;57704;51.112;5.878;2023-02-01T07:06:01;5.91;5.34;4.23;2.74;21.95;21.90;21.66;20.27;15.67;0.78
70299;SPS30;57704;51.112;5.878;2023-02-01T07:08:29;5.32;4.79;3.75;2.37;18.99;18.94;18.71;17.42;13.29;0.80
70299;SPS30;57704;51.112;5.878;2023-02-01T07:11:02;5.13;4.59;3.54;2.16;17.31;17.27;17.04;15.73;11.77;0.83
70299;SPS30;57704;51.112;5.878;2023-02-01T07:13:33;5.65;5.08;3.95;2.46;19.73;19.68;19.43;18.03;13.65;0.81
70299;SPS30;57704;51.112;5.878;2023-02-01T07:16:02;4.71;4.24;3.33;2.10;16.86;16.82;16.62;15.48;11.82;0.78
70299;SPS30;57704;51.112;5.878;2023-02-01T07:18:30;4.71;4.25;3.37;2.17;17.42;17.38;17.18;16.08;12.42;0.78
70299;SPS30;57704;51.112;5.878;2023-02-01T07:20:57;9.07;8.52;7.46;5.84;46.76;46.71;46.46;45.11;37.85;0.65
70299;SPS30;57704;51.112;5.878;2023-02-01T07:23:24;6.53;6.40;6.13;5.50;43.93;43.91;43.84;43.46;38.08;0.52
70299;SPS30;57704;51.112;5.878;2023-02-01T07:26:00;4.03;3.88;3.60;3.07;24.58;24.56;24.49;24.11;20.83;0.57
70299;SPS30;57704;51.112;5.878;2023-02-01T07:28:30;3.75;3.52;3.06;2.38;19.01;18.99;18.88;18.30;15.30;0.62
70299;SPS30;57704;51.112;5.878;2023-02-01T07:31:02;4.25;3.94;3.33;2.46;19.70;19.67;19.53;18.76;15.40;0.65
70299;SPS30;57704;51.112;5.878;2023-02-01T07:33:30;4.28;3.94;3.29;2.38;19.03;19.00;18.85;18.03;14.66;0.69
70299;SPS30;57704;51.112;5.878;2023-02-01T07:35:57;4.09;3.74;3.06;2.11;16.92;16.89;16.74;15.88;12.67;0.73
70299;SPS30;57704;51.112;5.878;2023-02-01T07:38:25;4.70;4.28;3.46;2.34;18.75;18.72;18.53;17.51;13.83;0.74
70299;SPS30;57704;51.112;5.878;2023-02-01T07:40:57;4.00;3.63;2.93;1.96;15.71;15.68;15.52;14.64;11.51;0.75
70299;SPS30;57704;51.112;5.878;2023-02-01T07:43:25;4.57;4.15;3.32;2.21;17.70;17.67;17.48;16.46;12.90;0.76
70299;SPS30;57704;51.112;5.878;2023-02-01T07:45:52;4.43;4.02;3.23;2.15;17.23;17.20;17.02;16.03;12.57;0.76
70299;SPS30;57704;51.112;5.878;2023-02-01T07:48:20;4.91;4.43;3.48;2.21;17.76;17.72;17.51;16.33;12.52;0.80
70299;SPS30;57704;51.112;5.878;2023-02-01T07:51:07;4.61;4.15;3.26;2.07;16.61;16.57;16.38;15.27;11.69;0.79
70299;SPS30;57704;51.112;5.878;2023-02-01T07:53:39;4.53;4.10;3.26;2.12;17.03;17.00;16.81;15.76;12.23;0.76
70299;SPS30;57704;51.112;5.878;2023-02-01T07:56:11;4.92;4.46;3.56;2.35;18.81;18.78;18.57;17.45;13.61;0.76
70299;SPS30;57704;51.112;5.878;2023-02-01T07:58:47;4.59;4.15;3.30;2.15;17.22;17.18;16.99;15.93;12.36;0.78
70299;SPS30;57704;51.112;5.878;2023-02-01T08:01:17;4.38;3.97;3.15;2.05;16.45;16.42;16.24;15.22;11.81;0.78
70299;SPS30;57704;51.112;5.878;2023-02-01T08:03:47;4.09;3.70;2.94;1.92;15.37;15.34;15.17;14.22;11.04;0.78
70299;SPS30;57704;51.112;5.878;2023-02-01T08:06:14;4.59;4.15;3.30;2.14;17.19;17.15;16.96;15.89;12.32;0.79
70299;SPS30;57704;51.112;5.878;2023-02-01T08:08:40;4.99;4.50;3.56;2.28;18.32;18.28;18.06;16.88;13.00;0.78
70299;SPS30;57704;51.112;5.878;2023-02-01T08:11:12;4.96;4.48;3.55;2.30;18.44;18.40;18.19;17.03;13.17;0.77
70299;SPS30;57704;51.112;5.878;2023-02-01T08:13:39;4.84;4.39;3.51;2.31;18.51;18.47;18.27;17.17;13.39;0.76
70299;SPS30;57704;51.112;5.878;2023-02-01T08:16:07;4.27;3.88;3.13;2.10;16.81;16.78;16.61;15.67;12.33;0.74
70299;SPS30;57704;51.112;5.878;2023-02-01T08:18:35;4.52;4.11;3.30;2.20;17.62;17.59;17.41;16.40;12.87;0.75
70299;SPS30;57704;51.112;5.878;2023-02-01T08:21:03;4.24;3.87;3.17;2.19;17.54;17.51;17.35;16.46;13.14;0.72
70299;SPS30;57704;51.112;5.878;2023-02-01T08:23:31;4.40;4.02;3.29;2.27;18.21;18.18;18.01;17.09;13.64;0.73
70299;SPS30;57704;51.112;5.878;2023-02-01T08:26:15;4.27;3.91;3.20;2.21;17.74;17.71;17.55;16.66;13.30;0.73
70299;SPS30;57704;51.112;5.878;2023-02-01T08:28:46;4.39;4.00;3.24;2.19;17.58;17.55;17.38;16.42;12.98;0.74
70299;SPS30;57704;51.112;5.878;2023-02-01T08:31:28;4.65;4.21;3.36;2.20;17.63;17.59;17.40;16.33;12.71;0.76
70299;SPS30;57704;51.112;5.878;2023-02-01T08:33:58;4.30;3.91;3.16;2.14;17.11;17.08;16.91;15.97;12.61;0.73
70299;SPS30;57704;51.112;5.878;2023-02-01T08:36:27;4.14;3.78;3.08;2.11;16.91;16.88;16.72;15.84;12.59;0.72
70299;SPS30;57704;51.112;5.878;2023-02-01T08:38:57;4.12;3.76;3.07;2.10;16.86;16.83;16.67;15.80;12.57;0.75
70299;SPS30;57704;51.112;5.878;2023-02-01T08:41:25;5.13;4.67;3.79;2.58;20.64;20.60;20.40;19.30;15.28;0.75
70299;SPS30;57704;51.112;5.878;2023-02-01T08:43:53;4.92;4.46;3.55;2.32;18.57;18.54;18.33;17.19;13.36;0.79
70299;SPS30;57704;51.112;5.878;2023-02-01T08:46:20;4.31;3.91;3.14;2.09;16.73;16.69;16.52;15.55;12.19;0.77
70299;SPS30;57704;51.112;5.878;2023-02-01T08:48:47;4.10;3.72;2.99;1.98;15.87;15.84;15.68;14.75;11.55;0.77
70299;SPS30;57704;51.112;5.878;2023-02-01T08:51:16;3.71;3.38;2.72;1.83;14.67;14.64;14.50;13.68;10.78;0.75
70299;SPS30;57704;51.112;5.878;2023-02-01T08:53:43;4.38;3.98;3.20;2.14;17.14;17.11;16.93;15.96;12.54;0.75
70299;SPS30;57704;51.112;5.878;2023-02-01T08:56:10;4.18;3.79;3.04;2.02;16.19;16.16;15.99;15.05;11.79;0.75
70299;SPS30;57704;51.112;5.878;2023-02-01T08:58:38;4.04;3.69;3.00;2.05;16.40;16.37;16.21;15.35;12.18;0.72
70299;SPS30;57704;51.112;5.878;2023-02-01T09:01:06;4.21;3.86;3.18;2.23;17.86;17.83;17.68;16.82;13.52;0.71
70299;SPS30;57704;51.112;5.878;2023-02-01T09:03:34;4.16;3.82;3.16;2.23;17.86;17.83;17.68;16.85;13.57;0.70
70299;SPS30;57704;51.112;5.878;2023-02-01T09:06:01;4.10;3.75;3.08;2.15;17.24;17.21;17.06;16.22;13.00;0.71
70299;SPS30;57704;51.112;5.878;2023-02-01T09:08:30;4.16;3.79;3.07;2.07;16.62;16.59;16.43;15.53;12.27;0.74
70299;SPS30;57704;51.112;5.878;2023-02-01T09:10:58;4.71;4.29;3.46;2.33;18.66;18.63;18.44;17.41;13.72;0.75
70299;SPS30;57704;51.112;5.878;2023-02-01T09:13:26;4.86;4.42;3.56;2.39;19.16;19.13;18.93;17.86;14.06;0.74
70299;SPS30;57704;51.112;5.878;2023-02-01T09:15:52;4.62;4.20;3.37;2.24;17.95;17.91;17.72;16.69;13.08;0.75
70299;SPS30;57704;51.112;5.878;2023-02-01T09:18:19;4.64;4.21;3.36;2.20;17.67;17.64;17.45;16.38;12.77;0.76
70299;SPS30;57704;51.112;5.878;2023-02-01T09:20:45;4.85;4.37;3.44;2.20;17.63;17.59;17.38;16.23;12.46;0.78
70299;SPS30;57704;51.112;5.878;2023-02-01T09:23:11;5.09;4.57;3.54;2.18;17.51;17.47;17.24;15.97;12.03;0.81
70299;SPS30;57704;51.112;5.878;2023-02-01T09:25:38;4.86;4.36;3.39;2.09;16.80;16.76;16.54;15.33;11.57;0.81
70299;SPS30;57704;51.112;5.878;2023-02-01T09:28:04;5.75;5.17;4.04;2.54;20.35;20.30;20.05;18.64;14.18;0.80
70299;SPS30;57704;51.112;5.878;2023-02-01T09:30:32;5.60;5.06;3.99;2.55;20.45;20.40;20.16;18.83;14.47;0.78
70299;SPS30;57704;51.112;5.878;2023-02-01T09:32:58;4.87;4.41;3.52;2.31;18.49;18.46;18.26;17.14;13.35;0.75
70299;SPS30;57704;51.112;5.878;2023-02-01T09:35:25;4.90;4.45;3.56;2.35;18.86;18.82;18.62;17.51;13.69;0.74
70299;SPS30;57704;51.112;5.878;2023-02-01T09:37:54;4.68;4.27;3.46;2.34;18.79;18.76;18.57;17.56;13.90;0.73
70299;SPS30;57704;51.112;5.878;2023-02-01T09:40:21;4.49;4.10;3.32;2.26;18.13;18.10;17.92;16.96;13.44;0.72
70299;SPS30;57704;51.112;5.878;2023-02-01T09:45:59;4.55;4.14;3.35;2.27;18.15;18.12;17.94;16.95;13.39;0.72
70299;SPS30;57704;51.112;5.878;2023-02-01T09:48:33;4.69;4.25;3.40;2.24;17.97;17.94;17.75;16.68;13.02;0.74
70299;SPS30;57704;51.112;5.878;2023-02-01T09:51:04;5.15;4.65;3.67;2.36;18.92;18.88;18.66;17.44;13.44;0.75
70299;SPS30;57704;51.112;5.878;2023-02-01T09:53:39;4.34;3.92;3.09;1.99;15.97;15.93;15.75;14.73;11.35;0.76
70299;SPS30;57704;51.112;5.878;2023-02-01T09:56:12;4.15;3.76;2.99;1.94;15.59;15.55;15.38;14.42;11.18;0.76
70299;SPS30;57704;51.112;5.878;2023-02-01T09:59:29;4.55;4.12;3.27;2.13;17.07;17.04;16.85;15.79;12.25;0.76
70299;SPS30;57704;51.112;5.878;2023-02-01T10:01:36;3.85;3.49;2.78;1.82;14.60;14.57;14.41;13.53;10.53;0.77
70299;SPS30;57704;51.112;5.878;2023-02-01T10:04:10;4.55;4.13;3.30;2.18;17.52;17.48;17.30;16.27;12.72;0.76
70299;SPS30;57704;51.112;5.878;2023-02-01T10:06:51;4.53;4.12;3.32;2.23;17.84;17.80;17.62;16.62;13.08;0.74
70299;SPS30;57704;51.112;5.878;2023-02-01T10:17:45;4.21;3.83;3.08;2.05;16.45;16.42;16.25;15.31;12.02;0.73
70299;SPS30;57704;51.112;5.878;2023-02-01T10:26:18;3.92;3.55;2.83;1.85;14.80;14.77;14.61;13.70;10.65;0.78
70299;SPS30;57704;51.112;5.878;2023-02-01T10:28:50;4.85;4.41;3.56;2.40;19.20;19.17;18.98;17.91;14.12;0.76
70299;SPS30;57704;51.112;5.878;2023-02-01T10:31:18;4.25;3.87;3.13;2.11;16.90;16.87;16.70;15.77;12.44;0.75
70299;SPS30;57704;51.112;5.878;2023-02-01T10:34:00;5.09;4.63;3.73;2.50;20.07;20.04;19.83;18.71;14.73;0.76
70299;SPS30;57704;51.112;5.878;2023-02-01T10:36:56;4.05;3.69;2.99;2.03;16.27;16.24;16.08;15.20;12.03;0.74
70299;SPS30;57704;51.112;5.878;2023-02-01T10:39:28;3.95;3.60;2.92;1.99;15.97;15.94;15.79;14.94;11.84;0.72
70299;SPS30;57704;51.112;5.878;2023-02-01T10:41:55;4.12;3.74;3.00;1.99;15.95;15.92;15.75;14.82;11.60;0.74
70299;SPS30;57704;51.112;5.878;2023-02-01T10:44:27;5.20;4.69;3.68;2.34;18.73;18.69;18.47;17.21;13.18;0.77
70299;SPS30;57704;51.112;5.878;2023-02-01T10:47:00;5.11;4.61;3.63;2.33;18.67;18.63;18.41;17.20;13.23;0.77
70299;SPS30;57704;51.112;5.878;2023-02-01T10:49:29;4.64;4.20;3.34;2.17;17.42;17.39;17.19;16.12;12.50;0.77
70299;SPS30;57704;51.112;5.878;2023-02-01T10:52:20;4.27;3.87;3.10;2.05;16.42;16.38;16.21;15.24;11.91;0.74
70299;SPS30;57704;51.112;5.878;2023-02-01T10:57:56;4.63;4.19;3.31;2.13;17.07;17.03;16.83;15.74;12.13;0.77
70299;SPS30;57704;51.112;5.878;2023-02-01T11:00:24;3.72;3.37;2.69;1.77;14.18;14.15;14.00;13.15;10.25;0.76
70299;SPS30;57704;51.112;5.878;2023-02-01T11:02:50;4.07;3.69;2.96;1.96;15.69;15.66;15.49;14.57;11.40;0.75
70299;SPS30;57704;51.112;5.878;2023-02-01T11:05:18;4.10;3.73;2.99;1.98;15.90;15.87;15.70;14.78;11.58;0.76
70299;SPS30;57704;51.112;5.878;2023-02-01T11:07:54;4.40;4.00;3.22;2.16;17.33;17.30;17.12;16.15;12.71;0.75
70299;SPS30;57704;51.112;5.878;2023-02-01T11:10:37;4.18;3.80;3.07;2.06;16.53;16.50;16.33;15.41;12.14;0.76
70299;SPS30;57704;51.112;5.878;2023-02-01T11:13:16;4.62;4.18;3.30;2.12;17.04;17.00;16.81;15.72;12.12;0.80
70299;SPS30;57704;51.112;5.878;2023-02-01T11:15:44;4.68;4.23;3.34;2.15;17.28;17.24;17.04;15.94;12.30;0.79
70299;SPS30;57704;51.112;5.878;2023-02-01T11:18:28;4.74;4.31;3.46;2.31;18.49;18.45;18.26;17.20;13.50;0.76
70299;SPS30;57704;51.112;5.878;2023-02-01T11:20:58;4.04;3.68;2.99;2.03;16.28;16.25;16.10;15.23;12.06;0.74
70299;SPS30;57704;51.112;5.878;2023-02-01T11:23:26;4.38;4.00;3.27;2.26;18.14;18.11;17.94;17.03;13.59;0.72
70299;SPS30;57704;51.112;5.878;2023-02-01T11:25:56;4.39;4.03;3.32;2.34;18.71;18.68;18.52;17.63;14.17;0.71
70299;SPS30;57704;51.112;5.878;2023-02-01T11:28:32;3.91;3.61;3.04;2.21;17.73;17.70;17.57;16.84;13.75;0.68